sensor_id;sensor_type;location;lat;lon;timestamp;temperature;humidity
47779;DHT22;33538;48.432;11.350;2023-05-29T00:01:37;17.40;59.50
47779;DHT22;33538;48.432;11.350;2023-05-29T00:04:04;17.40;59.40
47779;DHT22;33538;48.432;11.350;2023-05-29T00:06:33;17.40;59.60
47779;DHT22;33538;48.432;11.350;2023-05-29T00:08:59;17.30;59.60
47779;DHT22;33538;48.432;11.350;2023-05-29T00:11:26;17.30;59.50
47779;DHT22;33538;48.432;11.350;2023-05-29T00:13:53;17.30;59.50
47779;DHT22;33538;48.432;11.350;2023-05-29T00:16:20;17.30;59.60
47779;DHT22;33538;48.432;11.350;2023-05-29T00:18:47;17.20;59.50
47779;DHT22;33538;48.432;11.350;2023-05-29T00:21:14;17.20;59.70
47779;DHT22;33538;48.432;11.350;2023-05-29T00:23:42;17.20;59.80
47779;DHT22;33538;48.432;11.350;2023-05-29T00:26:12;17.20;59.90
47779;DHT22;33538;48.432;11.350;2023-05-29T00:28:38;17.10;59.80
47779;DHT22;33538;48.432;11.350;2023-05-29T00:31:05;17.10;59.80
47779;DHT22;33538;48.432;11.350;2023-05-29T00:33:32;17.10;59.80
47779;DHT22;33538;48.432;11.350;2023-05-29T00:35:59;17.10;59.70
47779;DHT22;33538;48.432;11.350;2023-05-29T00:38:26;17.10;59.80
47779;DHT22;33538;48.432;11.350;2023-05-29T00:40:54;17.10;59.80
47779;DHT22;33538;48.432;11.350;2023-05-29T00:43:21;17.10;59.90
47779;DHT22;33538;48.432;11.350;2023-05-29T00:45:47;17.10;60.00
47779;DHT22;33538;48.432;11.350;2023-05-29T00:48:15;17.00;60.00
47779;DHT22;33538;48.432;11.350;2023-05-29T00:50:44;17.00;60.00
47779;DHT22;33538;48.432;11.350;2023-05-29T00:53:11;17.00;60.30
47779;DHT22;33538;48.432;11.350;2023-05-29T00:55:38;16.90;60.40
47779;DHT22;33538;48.432;11.350;2023-05-29T00:58:06;16.90;60.10
47779;DHT22;33538;48.432;11.350;2023-05-29T01:00:33;16.90;60.00
47779;DHT22;33538;48.432;11.350;2023-05-29T01:03:00;16.90;60.20
47779;DHT22;33538;48.432;11.350;2023-05-29T01:05:29;16.90;60.20
47779;DHT22;33538;48.432;11.350;2023-05-29T01:07:55;16.90;60.20
47779;DHT22;33538;48.432;11.350;2023-05-29T01:10:22;16.80;60.60
47779;DHT22;33538;48.432;11.350;2023-05-29T01:12:54;16.80;60.60
47779;DHT22;33538;48.432;11.350;2023-05-29T01:15:33;16.80;60.60
47779;DHT22;33538;48.432;11.350;2023-05-29T01:18:20;16.80;60.50
47779;DHT22;33538;48.432;11.350;2023-05-29T01:20:54;16.80;60.50
47779;DHT22;33538;48.432;11.350;2023-05-29T01:23:47;16.80;60.50
47779;DHT22;33538;48.432;11.350;2023-05-29T01:26:45;16.80;60.50
47779;DHT22;33538;48.432;11.350;2023-05-29T01:29:14;16.70;60.70
47779;DHT22;33538;48.432;11.350;2023-05-29T01:31:42;16.70;60.60
47779;DHT22;33538;48.432;11.350;2023-05-29T01:34:10;16.60;60.50
47779;DHT22;33538;48.432;11.350;2023-05-29T01:36:37;16.60;60.50
47779;DHT22;33538;48.432;11.350;2023-05-29T01:39:05;16.60;60.70
47779;DHT22;33538;48.432;11.350;2023-05-29T01:41:32;16.60;60.60
47779;DHT22;33538;48.432;11.350;2023-05-29T01:44:03;16.60;60.60
47779;DHT22;33538;48.432;11.350;2023-05-29T01:46:30;16.60;60.80
47779;DHT22;33538;48.432;11.350;2023-05-29T01:48:57;16.50;60.90
47779;DHT22;33538;48.432;11.350;2023-05-29T01:51:24;16.50;60.80
47779;DHT22;33538;48.432;11.350;2023-05-29T01:53:51;16.50;60.80
47779;DHT22;33538;48.432;11.350;2023-05-29T01:56:18;16.50;60.90
47779;DHT22;33538;48.432;11.350;2023-05-29T01:58:45;16.50;60.90
47779;DHT22;33538;48.432;11.350;2023-05-29T02:01:14;16.30;61.20
47779;DHT22;33538;48.432;11.350;2023-05-29T02:03:41;16.30;61.20
47779;DHT22;33538;48.432;11.350;2023-05-29T02:06:08;16.40;61.30
47779;DHT22;33538;48.432;11.350;2023-05-29T02:08:34;16.40;61.00
47779;DHT22;33538;48.432;11.350;2023-05-29T02:11:01;16.40;61.30
47779;DHT22;33538;48.432;11.350;2023-05-29T02:13:28;16.40;61.40
47779;DHT22;33538;48.432;11.350;2023-05-29T02:15:55;16.40;61.50
47779;DHT22;33538;48.432;11.350;2023-05-29T02:18:23;16.30;61.50
47779;DHT22;33538;48.432;11.350;2023-05-29T02:20:50;16.30;61.70
47779;DHT22;33538;48.432;11.350;2023-05-29T02:23:17;16.30;61.60
47779;DHT22;33538;48.432;11.350;2023-05-29T02:25:45;16.30;61.50
47779;DHT22;33538;48.432;11.350;2023-05-29T02:28:12;16.20;61.10
47779;DHT22;33538;48.432;11.350;2023-05-29T02:30:39;16.20;61.20
47779;DHT22;33538;48.432;11.350;2023-05-29T02:33:05;16.10;61.10
47779;DHT22;33538;48.432;11.350;2023-05-29T02:35:34;16.10;61.30
47779;DHT22;33538;48.432;11.350;2023-05-29T02:38:01;16.10;61.10
47779;DHT22;33538;48.432;11.350;2023-05-29T02:40:27;16.10;61.30
47779;DHT22;33538;48.432;11.350;2023-05-29T02:42:54;16.10;61.30
47779;DHT22;33538;48.432;11.350;2023-05-29T02:45:21;16.10;61.30
47779;DHT22;33538;48.432;11.350;2023-05-29T02:47:48;16.10;61.40
47779;DHT22;33538;48.432;11.350;2023-05-29T02:50:15;16.10;61.30
47779;DHT22;33538;48.432;11.350;2023-05-29T02:52:43;16.10;61.30
47779;DHT22;33538;48.432;11.350;2023-05-29T02:55:10;16.10;61.50
47779;DHT22;33538;48.432;11.350;2023-05-29T02:57:37;16.00;61.30
47779;DHT22;33538;48.432;11.350;2023-05-29T03:00:04;16.00;61.30
47779;DHT22;33538;48.432;11.350;2023-05-29T03:02:31;16.00;61.50
47779;DHT22;33538;48.432;11.350;2023-05-29T03:04:58;16.00;61.30
47779;DHT22;33538;48.432;11.350;2023-05-29T03:07:25;16.00;61.50
47779;DHT22;33538;48.432;11.350;2023-05-29T03:09:53;16.00;61.70
47779;DHT22;33538;48.432;11.350;2023-05-29T03:12:20;15.90;61.80
47779;DHT22;33538;48.432;11.350;2023-05-29T03:14:47;15.90;62.10
47779;DHT22;33538;48.432;11.350;2023-05-29T03:17:14;15.90;61.90
47779;DHT22;33538;48.432;11.350;2023-05-29T03:19:41;15.90;62.20
47779;DHT22;33538;48.432;11.350;2023-05-29T03:22:08;15.80;62.40
47779;DHT22;33538;48.432;11.350;2023-05-29T03:24:34;15.80;62.20
47779;DHT22;33538;48.432;11.350;2023-05-29T03:27:03;15.80;62.00
47779;DHT22;33538;48.432;11.350;2023-05-29T03:29:31;15.70;62.30
47779;DHT22;33538;48.432;11.350;2023-05-29T03:31:57;15.70;62.30
47779;DHT22;33538;48.432;11.350;2023-05-29T03:34:24;15.80;62.10
47779;DHT22;33538;48.432;11.350;2023-05-29T03:36:51;15.70;62.20
47779;DHT22;33538;48.432;11.350;2023-05-29T03:39:18;15.70;62.40
47779;DHT22;33538;48.432;11.350;2023-05-29T03:41:45;15.70;62.30
47779;DHT22;33538;48.432;11.350;2023-05-29T03:44:13;15.70;62.10
47779;DHT22;33538;48.432;11.350;2023-05-29T03:46:40;15.70;62.50
47779;DHT22;33538;48.432;11.350;2023-05-29T03:49:07;15.70;62.60
47779;DHT22;33538;48.432;11.350;2023-05-29T03:51:34;15.70;62.30
47779;DHT22;33538;48.432;11.350;2023-05-29T03:54:01;15.60;62.50
47779;DHT22;33538;48.432;11.350;2023-05-29T03:56:28;15.70;62.50
47779;DHT22;33538;48.432;11.350;2023-05-29T03:58:54;15.60;62.50
47779;DHT22;33538;48.432;11.350;2023-05-29T04:01:23;15.60;62.70
47779;DHT22;33538;48.432;11.350;2023-05-29T04:03:50;15.60;62.90
47779;DHT22;33538;48.432;11.350;2023-05-29T04:06:17;15.60;63.00
47779;DHT22;33538;48.432;11.350;2023-05-29T04:08:44;15.60;63.00
47779;DHT22;33538;48.432;11.350;2023-05-29T04:11:11;15.60;62.90
47779;DHT22;33538;48.432;11.350;2023-05-29T04:13:38;15.60;63.00
47779;DHT22;33538;48.432;11.350;2023-05-29T04:16:05;15.60;64.40
47779;DHT22;33538;48.432;11.350;2023-05-29T04:18:33;15.50;63.50
47779;DHT22;33538;48.432;11.350;2023-05-29T04:21:00;15.50;63.40
47779;DHT22;33538;48.432;11.350;2023-05-29T04:23:27;15.50;63.40
47779;DHT22;33538;48.432;11.350;2023-05-29T04:25:54;15.50;63.50
47779;DHT22;33538;48.432;11.350;2023-05-29T04:28:21;15.50;63.80
47779;DHT22;33538;48.432;11.350;2023-05-29T04:30:48;15.50;63.80
47779;DHT22;33538;48.432;11.350;2023-05-29T04:33:15;15.50;64.30
47779;DHT22;33538;48.432;11.350;2023-05-29T04:35:43;15.50;64.00
47779;DHT22;33538;48.432;11.350;2023-05-29T04:38:10;15.50;64.10
47779;DHT22;33538;48.432;11.350;2023-05-29T04:40:37;15.50;64.00
47779;DHT22;33538;48.432;11.350;2023-05-29T04:43:04;15.50;64.00
47779;DHT22;33538;48.432;11.350;2023-05-29T04:45:31;15.50;64.00
47779;DHT22;33538;48.432;11.350;2023-05-29T04:47:57;15.50;64.30
47779;DHT22;33538;48.432;11.350;2023-05-29T04:50:24;15.50;64.50
47779;DHT22;33538;48.432;11.350;2023-05-29T04:52:52;15.50;64.70
47779;DHT22;33538;48.432;11.350;2023-05-29T04:55:19;15.20;65.80
47779;DHT22;33538;48.432;11.350;2023-05-29T04:57:46;15.20;66.10
47779;DHT22;33538;48.432;11.350;2023-05-29T05:00:14;15.00;66.90
47779;DHT22;33538;48.432;11.350;2023-05-29T05:02:41;15.20;66.80
47779;DHT22;33538;48.432;11.350;2023-05-29T05:05:09;15.20;67.00
47779;DHT22;33538;48.432;11.350;2023-05-29T05:07:36;15.30;67.10
47779;DHT22;33538;48.432;11.350;2023-05-29T05:10:04;15.40;67.10
47779;DHT22;33538;48.432;11.350;2023-05-29T05:12:31;15.50;67.30
47779;DHT22;33538;48.432;11.350;2023-05-29T05:14:58;15.50;67.10
47779;DHT22;33538;48.432;11.350;2023-05-29T05:17:25;15.50;67.30
47779;DHT22;33538;48.432;11.350;2023-05-29T05:19:53;15.50;67.40
47779;DHT22;33538;48.432;11.350;2023-05-29T05:22:20;15.60;67.90
47779;DHT22;33538;48.432;11.350;2023-05-29T05:24:46;15.50;68.00
47779;DHT22;33538;48.432;11.350;2023-05-29T05:27:15;15.60;68.10
47779;DHT22;33538;48.432;11.350;2023-05-29T05:29:41;15.60;68.40
47779;DHT22;33538;48.432;11.350;2023-05-29T05:32:08;15.50;69.10
47779;DHT22;33538;48.432;11.350;2023-05-29T05:34:35;15.50;69.40
47779;DHT22;33538;48.432;11.350;2023-05-29T05:37:05;15.50;70.70
47779;DHT22;33538;48.432;11.350;2023-05-29T05:39:32;15.60;71.00
47779;DHT22;33538;48.432;11.350;2023-05-29T05:41:58;15.60;70.70
47779;DHT22;33538;48.432;11.350;2023-05-29T05:44:27;15.60;70.50
47779;DHT22;33538;48.432;11.350;2023-05-29T05:46:54;15.60;70.60
47779;DHT22;33538;48.432;11.350;2023-05-29T05:49:20;15.60;70.20
47779;DHT22;33538;48.432;11.350;2023-05-29T05:51:47;15.70;70.30
47779;DHT22;33538;48.432;11.350;2023-05-29T05:54:16;15.70;69.70
47779;DHT22;33538;48.432;11.350;2023-05-29T05:56:43;15.70;69.10
47779;DHT22;33538;48.432;11.350;2023-05-29T05:59:10;15.70;69.10
47779;DHT22;33538;48.432;11.350;2023-05-29T06:01:38;15.80;68.70
47779;DHT22;33538;48.432;11.350;2023-05-29T06:04:05;15.80;68.30
47779;DHT22;33538;48.432;11.350;2023-05-29T06:06:32;15.80;68.60
47779;DHT22;33538;48.432;11.350;2023-05-29T06:08:58;15.90;68.00
47779;DHT22;33538;48.432;11.350;2023-05-29T06:11:25;15.90;67.60
47779;DHT22;33538;48.432;11.350;2023-05-29T06:13:53;15.90;67.40
47779;DHT22;33538;48.432;11.350;2023-05-29T06:16:19;15.90;67.00
47779;DHT22;33538;48.432;11.350;2023-05-29T06:18:48;15.90;66.70
47779;DHT22;33538;48.432;11.350;2023-05-29T06:21:15;16.00;66.40
47779;DHT22;33538;48.432;11.350;2023-05-29T06:23:41;16.00;66.60
47779;DHT22;33538;48.432;11.350;2023-05-29T06:26:08;16.00;66.80
47779;DHT22;33538;48.432;11.350;2023-05-29T06:28:35;16.00;66.80
47779;DHT22;33538;48.432;11.350;2023-05-29T06:31:02;16.10;66.30
47779;DHT22;33538;48.432;11.350;2023-05-29T06:33:29;16.10;65.70
47779;DHT22;33538;48.432;11.350;2023-05-29T06:35:57;16.10;65.80
47779;DHT22;33538;48.432;11.350;2023-05-29T06:38:25;16.20;66.10
47779;DHT22;33538;48.432;11.350;2023-05-29T06:40:52;16.20;65.60
47779;DHT22;33538;48.432;11.350;2023-05-29T06:43:19;16.20;65.50
47779;DHT22;33538;48.432;11.350;2023-05-29T06:45:46;16.20;65.30
47779;DHT22;33538;48.432;11.350;2023-05-29T06:48:13;16.20;65.10
47779;DHT22;33538;48.432;11.350;2023-05-29T06:50:40;16.20;65.00
47779;DHT22;33538;48.432;11.350;2023-05-29T06:53:08;16.30;65.20
47779;DHT22;33538;48.432;11.350;2023-05-29T06:55:35;16.30;65.10
47779;DHT22;33538;48.432;11.350;2023-05-29T06:58:02;16.30;64.90
47779;DHT22;33538;48.432;11.350;2023-05-29T07:00:29;16.40;64.90
47779;DHT22;33538;48.432;11.350;2023-05-29T07:02:56;16.40;65.00
47779;DHT22;33538;48.432;11.350;2023-05-29T07:05:23;16.40;65.10
47779;DHT22;33538;48.432;11.350;2023-05-29T07:07:50;16.50;65.10
47779;DHT22;33538;48.432;11.350;2023-05-29T07:10:18;16.50;65.00
47779;DHT22;33538;48.432;11.350;2023-05-29T07:12:45;16.50;65.10
47779;DHT22;33538;48.432;11.350;2023-05-29T07:15:12;16.60;65.30
47779;DHT22;33538;48.432;11.350;2023-05-29T07:17:38;16.60;65.50
47779;DHT22;33538;48.432;11.350;2023-05-29T07:20:07;16.60;65.70
47779;DHT22;33538;48.432;11.350;2023-05-29T07:22:34;16.70;66.10
47779;DHT22;33538;48.432;11.350;2023-05-29T07:25:01;16.70;66.10
47779;DHT22;33538;48.432;11.350;2023-05-29T07:27:29;16.70;66.10
47779;DHT22;33538;48.432;11.350;2023-05-29T07:29:56;16.70;66.30
47779;DHT22;33538;48.432;11.350;2023-05-29T07:32:22;16.80;66.50
47779;DHT22;33538;48.432;11.350;2023-05-29T07:34:49;16.80;66.90
47779;DHT22;33538;48.432;11.350;2023-05-29T07:37:16;16.80;66.80
47779;DHT22;33538;48.432;11.350;2023-05-29T07:39:43;16.90;67.10
47779;DHT22;33538;48.432;11.350;2023-05-29T07:42:10;16.90;67.20
47779;DHT22;33538;48.432;11.350;2023-05-29T07:44:38;16.90;67.30
47779;DHT22;33538;48.432;11.350;2023-05-29T07:47:05;16.90;67.50
47779;DHT22;33538;48.432;11.350;2023-05-29T07:49:32;17.00;67.80
47779;DHT22;33538;48.432;11.350;2023-05-29T07:51:59;17.00;67.80
47779;DHT22;33538;48.432;11.350;2023-05-29T07:54:26;17.00;67.80
47779;DHT22;33538;48.432;11.350;2023-05-29T07:56:53;17.10;68.30
47779;DHT22;33538;48.432;11.350;2023-05-29T07:59:19;17.10;68.00
47779;DHT22;33538;48.432;11.350;2023-05-29T08:01:48;17.10;68.20
47779;DHT22;33538;48.432;11.350;2023-05-29T08:04:14;17.20;68.40
47779;DHT22;33538;48.432;11.350;2023-05-29T08:06:41;17.10;68.10
47779;DHT22;33538;48.432;11.350;2023-05-29T08:09:08;17.20;68.30
47779;DHT22;33538;48.432;11.350;2023-05-29T08:11:36;17.20;68.40
47779;DHT22;33538;48.432;11.350;2023-05-29T08:14:03;17.20;68.40
47779;DHT22;33538;48.432;11.350;2023-05-29T08:16:30;17.30;68.40
47779;DHT22;33538;48.432;11.350;2023-05-29T08:18:58;17.20;69.20
47779;DHT22;33538;48.432;11.350;2023-05-29T08:21:25;17.30;68.50
47779;DHT22;33538;48.432;11.350;2023-05-29T08:23:52;17.30;68.50
47779;DHT22;33538;48.432;11.350;2023-05-29T08:26:18;17.30;68.40
47779;DHT22;33538;48.432;11.350;2023-05-29T08:28:45;17.40;68.30
47779;DHT22;33538;48.432;11.350;2023-05-29T08:31:12;17.40;68.40
47779;DHT22;33538;48.432;11.350;2023-05-29T08:33:39;17.40;68.40
47779;DHT22;33538;48.432;11.350;2023-05-29T08:36:07;17.50;68.60
47779;DHT22;33538;48.432;11.350;2023-05-29T08:38:34;17.50;68.50
47779;DHT22;33538;48.432;11.350;2023-05-29T08:41:02;17.50;68.70
47779;DHT22;33538;48.432;11.350;2023-05-29T08:43:30;17.60;68.70
47779;DHT22;33538;48.432;11.350;2023-05-29T08:46:00;17.60;68.80
47779;DHT22;33538;48.432;11.350;2023-05-29T08:48:28;17.60;68.80
47779;DHT22;33538;48.432;11.350;2023-05-29T08:50:56;17.60;69.00
47779;DHT22;33538;48.432;11.350;2023-05-29T08:53:26;17.70;69.00
47779;DHT22;33538;48.432;11.350;2023-05-29T08:55:53;17.70;69.00
47779;DHT22;33538;48.432;11.350;2023-05-29T08:58:20;17.70;69.10
47779;DHT22;33538;48.432;11.350;2023-05-29T09:00:48;17.70;69.00
47779;DHT22;33538;48.432;11.350;2023-05-29T09:03:15;17.70;69.10
47779;DHT22;33538;48.432;11.350;2023-05-29T09:05:42;17.80;69.20
47779;DHT22;33538;48.432;11.350;2023-05-29T09:08:09;17.80;69.30
47779;DHT22;33538;48.432;11.350;2023-05-29T09:10:38;17.80;69.30
47779;DHT22;33538;48.432;11.350;2023-05-29T09:13:05;17.80;69.30
47779;DHT22;33538;48.432;11.350;2023-05-29T09:15:33;17.90;69.40
47779;DHT22;33538;48.432;11.350;2023-05-29T09:18:00;17.90;69.40
47779;DHT22;33538;48.432;11.350;2023-05-29T09:20:27;17.90;69.40
47779;DHT22;33538;48.432;11.350;2023-05-29T09:22:54;18.00;69.50
47779;DHT22;33538;48.432;11.350;2023-05-29T09:25:23;18.00;69.50
47779;DHT22;33538;48.432;11.350;2023-05-29T09:27:58;18.00;69.40
47779;DHT22;33538;48.432;11.350;2023-05-29T09:30:34;18.00;69.40
47779;DHT22;33538;48.432;11.350;2023-05-29T09:33:01;18.10;69.50
47779;DHT22;33538;48.432;11.350;2023-05-29T09:35:33;18.10;69.40
47779;DHT22;33538;48.432;11.350;2023-05-29T09:38:00;18.10;69.40
47779;DHT22;33538;48.432;11.350;2023-05-29T09:40:30;18.20;69.40
47779;DHT22;33538;48.432;11.350;2023-05-29T09:43:03;18.20;69.40
47779;DHT22;33538;48.432;11.350;2023-05-29T09:45:30;18.20;69.50
47779;DHT22;33538;48.432;11.350;2023-05-29T09:47:58;18.20;69.60
47779;DHT22;33538;48.432;11.350;2023-05-29T09:50:26;18.20;69.50
47779;DHT22;33538;48.432;11.350;2023-05-29T09:52:52;18.20;69.50
47779;DHT22;33538;48.432;11.350;2023-05-29T09:55:20;18.30;69.70
47779;DHT22;33538;48.432;11.350;2023-05-29T09:57:47;18.30;69.70
47779;DHT22;33538;48.432;11.350;2023-05-29T10:00:17;18.30;70.20
47779;DHT22;33538;48.432;11.350;2023-05-29T10:02:44;18.30;69.80
47779;DHT22;33538;48.432;11.350;2023-05-29T10:05:11;18.30;69.80
47779;DHT22;33538;48.432;11.350;2023-05-29T10:07:43;18.40;69.90
47779;DHT22;33538;48.432;11.350;2023-05-29T10:10:11;18.40;69.90
47779;DHT22;33538;48.432;11.350;2023-05-29T10:12:39;18.40;70.00
47779;DHT22;33538;48.432;11.350;2023-05-29T10:15:12;18.50;70.00
47779;DHT22;33538;48.432;11.350;2023-05-29T10:17:47;18.50;70.00
47779;DHT22;33538;48.432;11.350;2023-05-29T10:20:17;18.50;70.00
47779;DHT22;33538;48.432;11.350;2023-05-29T10:22:47;18.50;70.00
47779;DHT22;33538;48.432;11.350;2023-05-29T10:25:14;18.60;70.10
47779;DHT22;33538;48.432;11.350;2023-05-29T10:27:44;18.60;69.60
47779;DHT22;33538;48.432;11.350;2023-05-29T10:30:16;18.60;69.80
47779;DHT22;33538;48.432;11.350;2023-05-29T10:33:00;18.60;69.80
47779;DHT22;33538;48.432;11.350;2023-05-29T10:35:40;18.60;69.90
47779;DHT22;33538;48.432;11.350;2023-05-29T10:38:12;18.70;69.90
47779;DHT22;33538;48.432;11.350;2023-05-29T10:40:39;18.70;69.90
47779;DHT22;33538;48.432;11.350;2023-05-29T10:43:06;18.70;70.00
47779;DHT22;33538;48.432;11.350;2023-05-29T10:45:49;18.70;70.00
47779;DHT22;33538;48.432;11.350;2023-05-29T10:48:39;18.80;70.00
47779;DHT22;33538;48.432;11.350;2023-05-29T10:51:07;18.80;70.10
47779;DHT22;33538;48.432;11.350;2023-05-29T10:53:34;18.80;70.10
47779;DHT22;33538;48.432;11.350;2023-05-29T10:56:01;18.80;70.00
47779;DHT22;33538;48.432;11.350;2023-05-29T10:58:30;18.90;70.30
47779;DHT22;33538;48.432;11.350;2023-05-29T11:00:57;18.90;70.20
47779;DHT22;33538;48.432;11.350;2023-05-29T11:03:25;18.90;70.00
47779;DHT22;33538;48.432;11.350;2023-05-29T11:06:01;18.90;70.10
47779;DHT22;33538;48.432;11.350;2023-05-29T11:08:33;18.90;70.10
47779;DHT22;33538;48.432;11.350;2023-05-29T11:11:00;19.00;69.60
47779;DHT22;33538;48.432;11.350;2023-05-29T11:13:32;19.00;69.80
47779;DHT22;33538;48.432;11.350;2023-05-29T11:16:09;19.00;70.00
47779;DHT22;33538;48.432;11.350;2023-05-29T11:18:40;19.00;70.10
47779;DHT22;33538;48.432;11.350;2023-05-29T11:23:58;19.10;70.20
47779;DHT22;33538;48.432;11.350;2023-05-29T11:26:27;19.10;70.60
47779;DHT22;33538;48.432;11.350;2023-05-29T11:28:57;19.10;70.30
47779;DHT22;33538;48.432;11.350;2023-05-29T11:31:24;19.20;70.40
47779;DHT22;33538;48.432;11.350;2023-05-29T11:33:54;19.10;70.50
47779;DHT22;33538;48.432;11.350;2023-05-29T11:36:26;19.20;70.60
47779;DHT22;33538;48.432;11.350;2023-05-29T11:38:53;19.20;70.60
47779;DHT22;33538;48.432;11.350;2023-05-29T11:41:20;19.30;70.60
47779;DHT22;33538;48.432;11.350;2023-05-29T11:43:56;19.40;69.10
47779;DHT22;33538;48.432;11.350;2023-05-29T11:46:23;19.30;69.70
47779;DHT22;33538;48.432;11.350;2023-05-29T11:48:51;19.30;70.20
47779;DHT22;33538;48.432;11.350;2023-05-29T11:51:18;19.30;70.10
47779;DHT22;33538;48.432;11.350;2023-05-29T11:53:47;19.30;70.10
47779;DHT22;33538;48.432;11.350;2023-05-29T11:56:14;19.30;70.10
47779;DHT22;33538;48.432;11.350;2023-05-29T11:58:42;19.30;70.30
47779;DHT22;33538;48.432;11.350;2023-05-29T12:01:09;19.40;70.00
47779;DHT22;33538;48.432;11.350;2023-05-29T12:03:40;19.50;69.50
47779;DHT22;33538;48.432;11.350;2023-05-29T12:06:08;19.50;69.80
47779;DHT22;33538;48.432;11.350;2023-05-29T12:08:36;19.40;69.90
47779;DHT22;33538;48.432;11.350;2023-05-29T12:11:05;19.40;70.00
47779;DHT22;33538;48.432;11.350;2023-05-29T12:13:32;19.50;69.90
47779;DHT22;33538;48.432;11.350;2023-05-29T12:16:02;19.50;70.40
47779;DHT22;33538;48.432;11.350;2023-05-29T12:18:29;19.50;69.70
47779;DHT22;33538;48.432;11.350;2023-05-29T12:20:57;19.50;69.90
47779;DHT22;33538;48.432;11.350;2023-05-29T12:23:24;19.50;69.90
47779;DHT22;33538;48.432;11.350;2023-05-29T12:25:51;19.50;69.90
47779;DHT22;33538;48.432;11.350;2023-05-29T12:28:20;19.50;70.00
47779;DHT22;33538;48.432;11.350;2023-05-29T12:30:48;19.50;70.00
47779;DHT22;33538;48.432;11.350;2023-05-29T12:33:25;19.50;70.10
47779;DHT22;33538;48.432;11.350;2023-05-29T12:35:52;19.60;70.10
47779;DHT22;33538;48.432;11.350;2023-05-29T12:38:19;19.60;69.70
47779;DHT22;33538;48.432;11.350;2023-05-29T12:40:49;19.60;69.80
47779;DHT22;33538;48.432;11.350;2023-05-29T12:43:16;19.70;69.10
47779;DHT22;33538;48.432;11.350;2023-05-29T12:45:44;19.70;69.40
47779;DHT22;33538;48.432;11.350;2023-05-29T12:48:11;19.70;69.50
47779;DHT22;33538;48.432;11.350;2023-05-29T12:50:39;19.70;69.50
47779;DHT22;33538;48.432;11.350;2023-05-29T12:53:07;19.70;69.50
47779;DHT22;33538;48.432;11.350;2023-05-29T12:55:35;19.70;69.50
47779;DHT22;33538;48.432;11.350;2023-05-29T12:58:02;19.70;69.20
47779;DHT22;33538;48.432;11.350;2023-05-29T13:00:29;19.80;68.80
47779;DHT22;33538;48.432;11.350;2023-05-29T13:02:57;19.80;68.10
47779;DHT22;33538;48.432;11.350;2023-05-29T13:05:24;19.80;68.50
47779;DHT22;33538;48.432;11.350;2023-05-29T13:07:52;19.70;68.70
47779;DHT22;33538;48.432;11.350;2023-05-29T13:10:19;19.70;68.70
47779;DHT22;33538;48.432;11.350;2023-05-29T13:12:47;19.70;68.70
47779;DHT22;33538;48.432;11.350;2023-05-29T13:15:14;19.80;68.80
47779;DHT22;33538;48.432;11.350;2023-05-29T13:17:41;19.80;68.50
47779;DHT22;33538;48.432;11.350;2023-05-29T13:20:11;19.90;67.30
47779;DHT22;33538;48.432;11.350;2023-05-29T13:22:39;19.90;67.80
47779;DHT22;33538;48.432;11.350;2023-05-29T13:25:07;19.90;68.20
47779;DHT22;33538;48.432;11.350;2023-05-29T13:27:35;19.90;68.20
47779;DHT22;33538;48.432;11.350;2023-05-29T13:30:03;19.90;68.10
47779;DHT22;33538;48.432;11.350;2023-05-29T13:32:30;19.90;68.40
47779;DHT22;33538;48.432;11.350;2023-05-29T13:34:57;19.90;68.40
47779;DHT22;33538;48.432;11.350;2023-05-29T13:37:25;20.00;67.60
47779;DHT22;33538;48.432;11.350;2023-05-29T13:39:52;20.00;67.80
47779;DHT22;33538;48.432;11.350;2023-05-29T13:42:19;20.00;67.80
47779;DHT22;33538;48.432;11.350;2023-05-29T13:44:47;19.90;67.90
47779;DHT22;33538;48.432;11.350;2023-05-29T13:47:14;20.00;68.00
47779;DHT22;33538;48.432;11.350;2023-05-29T13:49:41;20.00;68.10
47779;DHT22;33538;48.432;11.350;2023-05-29T13:52:08;20.00;67.70
47779;DHT22;33538;48.432;11.350;2023-05-29T13:54:38;20.10;67.10
47779;DHT22;33538;48.432;11.350;2023-05-29T13:57:06;20.10;67.10
47779;DHT22;33538;48.432;11.350;2023-05-29T13:59:34;20.10;66.40
47779;DHT22;33538;48.432;11.350;2023-05-29T14:02:01;20.10;66.60
47779;DHT22;33538;48.432;11.350;2023-05-29T14:04:29;20.10;66.60
47779;DHT22;33538;48.432;11.350;2023-05-29T14:06:56;20.10;66.50
47779;DHT22;33538;48.432;11.350;2023-05-29T14:09:23;20.10;66.50
47779;DHT22;33538;48.432;11.350;2023-05-29T14:11:51;20.10;66.40
47779;DHT22;33538;48.432;11.350;2023-05-29T14:14:18;20.20;66.50
47779;DHT22;33538;48.432;11.350;2023-05-29T14:16:46;20.20;66.50
47779;DHT22;33538;48.432;11.350;2023-05-29T14:19:13;20.20;66.30
47779;DHT22;33538;48.432;11.350;2023-05-29T14:21:40;20.20;65.90
47779;DHT22;33538;48.432;11.350;2023-05-29T14:24:07;20.30;66.10
47779;DHT22;33538;48.432;11.350;2023-05-29T14:26:33;20.30;66.00
47779;DHT22;33538;48.432;11.350;2023-05-29T14:29:02;20.30;65.60
47779;DHT22;33538;48.432;11.350;2023-05-29T14:31:40;20.40;63.60
47779;DHT22;33538;48.432;11.350;2023-05-29T14:34:07;20.40;63.80
47779;DHT22;33538;48.432;11.350;2023-05-29T14:36:33;20.40;63.70
47779;DHT22;33538;48.432;11.350;2023-05-29T14:39:01;20.40;63.80
47779;DHT22;33538;48.432;11.350;2023-05-29T14:41:27;20.40;63.80
47779;DHT22;33538;48.432;11.350;2023-05-29T14:43:54;20.40;63.80
47779;DHT22;33538;48.432;11.350;2023-05-29T14:46:22;20.40;63.70
47779;DHT22;33538;48.432;11.350;2023-05-29T14:48:49;20.40;63.70
47779;DHT22;33538;48.432;11.350;2023-05-29T14:51:16;20.40;63.50
47779;DHT22;33538;48.432;11.350;2023-05-29T14:53:43;20.40;63.40
47779;DHT22;33538;48.432;11.350;2023-05-29T14:56:10;20.50;63.20
47779;DHT22;33538;48.432;11.350;2023-05-29T14:58:37;20.50;64.00
47779;DHT22;33538;48.432;11.350;2023-05-29T15:01:04;20.50;62.90
47779;DHT22;33538;48.432;11.350;2023-05-29T15:03:32;20.50;62.90
47779;DHT22;33538;48.432;11.350;2023-05-29T15:05:59;20.50;62.20
47779;DHT22;33538;48.432;11.350;2023-05-29T15:08:26;20.60;61.10
47779;DHT22;33538;48.432;11.350;2023-05-29T15:10:53;20.60;61.40
47779;DHT22;33538;48.432;11.350;2023-05-29T15:13:20;20.60;61.50
47779;DHT22;33538;48.432;11.350;2023-05-29T15:15:47;20.60;60.90
47779;DHT22;33538;48.432;11.350;2023-05-29T15:18:14;20.70;60.70
47779;DHT22;33538;48.432;11.350;2023-05-29T15:20:42;20.70;60.70
47779;DHT22;33538;48.432;11.350;2023-05-29T15:23:09;20.60;60.80